sensor_id;sensor_type;location;lat;lon;timestamp;pressure;altitude;pressure_sealevel;temperature;humidity
43503;BME280;29098;48.184;16.298;2023-02-22T00:02:24;99417.06;;;11.01;78.89
43503;BME280;29098;48.184;16.298;2023-02-22T00:04:53;99413.25;;;11.04;78.40
43503;BME280;29098;48.184;16.298;2023-02-22T00:07:18;99423.97;;;10.87;79.90
43503;BME280;29098;48.184;16.298;2023-02-22T00:09:45;99423.44;;;10.92;79.43
43503;BME280;29098;48.184;16.298;2023-02-22T00:12:10;99423.09;;;10.95;79.41
43503;BME280;29098;48.184;16.298;2023-02-22T00:14:36;99434.72;;;11.01;78.94
43503;BME280;29098;48.184;16.298;2023-02-22T00:17:01;99432.00;;;11.09;77.70
43503;BME280;29098;48.184;16.298;2023-02-22T00:19:27;99432.00;;;10.94;78.95
43503;BME280;29098;48.184;16.298;2023-02-22T00:21:55;99437.19;;;11.02;78.36
43503;BME280;29098;48.184;16.298;2023-02-22T00:24:22;99432.25;;;10.99;78.65
43503;BME280;29098;48.184;16.298;2023-02-22T00:26:51;99437.72;;;10.98;79.36
43503;BME280;29098;48.184;16.298;2023-02-22T00:29:19;99436.44;;;10.93;79.49
43503;BME280;29098;48.184;16.298;2023-02-22T00:31:45;99428.91;;;10.90;80.36
43503;BME280;29098;48.184;16.298;2023-02-22T00:34:12;99434.19;;;10.90;80.13
43503;BME280;29098;48.184;16.298;2023-02-22T00:36:37;99439.19;;;10.85;80.08
43503;BME280;29098;48.184;16.298;2023-02-22T00:39:03;99432.34;;;10.91;79.55
43503;BME280;29098;48.184;16.298;2023-02-22T00:41:28;99428.72;;;10.77;80.18
43503;BME280;29098;48.184;16.298;2023-02-22T00:43:53;99437.88;;;10.81;80.88
43503;BME280;29098;48.184;16.298;2023-02-22T00:46:19;99423.97;;;10.72;80.57
43503;BME280;29098;48.184;16.298;2023-02-22T00:48:44;99429.97;;;10.81;80.52
43503;BME280;29098;48.184;16.298;2023-02-22T00:51:09;99439.19;;;10.85;80.01
43503;BME280;29098;48.184;16.298;2023-02-22T00:53:34;99428.34;;;10.80;80.38
43503;BME280;29098;48.184;16.298;2023-02-22T00:56:00;99426.63;;;10.87;80.63
43503;BME280;29098;48.184;16.298;2023-02-22T00:58:25;99433.97;;;10.92;79.49
43503;BME280;29098;48.184;16.298;2023-02-22T01:00:51;99429.88;;;10.89;80.38
43503;BME280;29098;48.184;16.298;2023-02-22T01:03:17;99428.81;;;10.83;80.58
43503;BME280;29098;48.184;16.298;2023-02-22T01:05:43;99429.16;;;10.80;80.89
43503;BME280;29098;48.184;16.298;2023-02-22T01:08:09;99427.63;;;10.86;81.10
43503;BME280;29098;48.184;16.298;2023-02-22T01:10:36;99422.81;;;10.75;81.20
43503;BME280;29098;48.184;16.298;2023-02-22T01:13:02;99423.31;;;10.70;81.77
43503;BME280;29098;48.184;16.298;2023-02-22T01:15:32;99416.88;;;10.73;81.53
43503;BME280;29098;48.184;16.298;2023-02-22T01:17:58;99425.25;;;10.76;81.46
43503;BME280;29098;48.184;16.298;2023-02-22T01:20:23;99418.41;;;10.82;81.69
43503;BME280;29098;48.184;16.298;2023-02-22T01:22:53;99414.59;;;10.85;81.53
43503;BME280;29098;48.184;16.298;2023-02-22T01:25:20;99415.06;;;10.73;81.70
43503;BME280;29098;48.184;16.298;2023-02-22T01:27:46;99410.25;;;10.77;81.74
43503;BME280;29098;48.184;16.298;2023-02-22T01:30:12;99413.06;;;10.75;82.03
43503;BME280;29098;48.184;16.298;2023-02-22T01:32:39;99403.69;;;10.73;82.22
43503;BME280;29098;48.184;16.298;2023-02-22T01:35:09;99407.41;;;10.63;82.42
43503;BME280;29098;48.184;16.298;2023-02-22T01:37:34;99407.25;;;10.65;82.73
43503;BME280;29098;48.184;16.298;2023-02-22T01:40:00;99407.25;;;10.65;83.30
43503;BME280;29098;48.184;16.298;2023-02-22T01:42:26;99396.13;;;10.54;82.89
43503;BME280;29098;48.184;16.298;2023-02-22T01:47:37;99403.06;;;10.71;82.46
43503;BME280;29098;48.184;16.298;2023-02-22T01:50:02;99403.88;;;10.56;83.41
43503;BME280;29098;48.184;16.298;2023-02-22T01:52:28;99397.25;;;10.60;82.21
43503;BME280;29098;48.184;16.298;2023-02-22T01:54:54;99400.22;;;10.57;83.45
43503;BME280;29098;48.184;16.298;2023-02-22T01:57:28;99388.88;;;10.57;83.14
43503;BME280;29098;48.184;16.298;2023-02-22T01:59:56;99397.25;;;10.60;82.18
43503;BME280;29098;48.184;16.298;2023-02-22T02:02:23;99398.34;;;10.66;82.39
43503;BME280;29098;48.184;16.298;2023-02-22T02:04:50;99400.81;;;10.67;82.41
43503;BME280;29098;48.184;16.298;2023-02-22T02:07:17;99397.03;;;10.62;83.17
43503;BME280;29098;48.184;16.298;2023-02-22T02:09:53;99392.59;;;10.62;83.04
43503;BME280;29098;48.184;16.298;2023-02-22T02:12:25;99394.25;;;10.63;83.01
43503;BME280;29098;48.184;16.298;2023-02-22T02:14:51;99392.53;;;10.71;82.73
43503;BME280;29098;48.184;16.298;2023-02-22T02:17:17;99394.16;;;10.72;82.73
43503;BME280;29098;48.184;16.298;2023-02-22T02:20:04;99381.44;;;10.75;81.17
43503;BME280;29098;48.184;16.298;2023-02-22T02:30:52;99382.88;;;10.78;82.54
43503;BME280;29098;48.184;16.298;2023-02-22T02:33:33;99383.06;;;10.76;82.17
43503;BME280;29098;48.184;16.298;2023-02-22T02:36:04;99379.78;;;10.74;82.75
43503;BME280;29098;48.184;16.298;2023-02-22T02:38:34;99377.53;;;10.71;83.02
43503;BME280;29098;48.184;16.298;2023-02-22T02:41:04;99379.72;;;10.67;83.32
43503;BME280;29098;48.184;16.298;2023-02-22T02:43:32;99382.06;;;10.62;83.14
43503;BME280;29098;48.184;16.298;2023-02-22T02:46:05;99377.34;;;10.58;82.93
43503;BME280;29098;48.184;16.298;2023-02-22T02:48:33;99368.25;;;10.60;82.86
43503;BME280;29098;48.184;16.298;2023-02-22T02:51:00;99376.16;;;10.60;83.24
43503;BME280;29098;48.184;16.298;2023-02-22T02:53:37;99374.78;;;10.64;82.86
43503;BME280;29098;48.184;16.298;2023-02-22T02:56:03;99374.31;;;10.61;82.62
43503;BME280;29098;48.184;16.298;2023-02-22T02:58:29;99368.59;;;10.57;83.46
43503;BME280;29098;48.184;16.298;2023-02-22T03:00:56;99364.88;;;10.51;83.43
43503;BME280;29098;48.184;16.298;2023-02-22T03:03:43;99369.44;;;10.58;83.18
43503;BME280;29098;48.184;16.298;2023-02-22T03:08:44;99369.50;;;10.49;83.83
43503;BME280;29098;48.184;16.298;2023-02-22T03:11:18;99373.78;;;10.50;83.63
43503;BME280;29098;48.184;16.298;2023-02-22T03:13:48;99372.94;;;10.50;83.16
43503;BME280;29098;48.184;16.298;2023-02-22T03:16:17;99375.41;;;10.51;83.17
43503;BME280;29098;48.184;16.298;2023-02-22T03:18:48;99379.84;;;10.51;83.60
43503;BME280;29098;48.184;16.298;2023-02-22T03:21:20;99383.53;;;10.41;83.46
43503;BME280;29098;48.184;16.298;2023-02-22T03:24:07;99380.91;;;10.41;83.74
43503;BME280;29098;48.184;16.298;2023-02-22T03:26:35;99385.22;;;10.43;83.62
43503;BME280;29098;48.184;16.298;2023-02-22T03:29:03;99380.59;;;10.45;84.03
43503;BME280;29098;48.184;16.298;2023-02-22T03:31:31;99380.50;;;10.53;82.94
43503;BME280;29098;48.184;16.298;2023-02-22T03:34:03;99383.78;;;10.55;83.32
43503;BME280;29098;48.184;16.298;2023-02-22T03:36:34;99381.41;;;10.45;83.82
43503;BME280;29098;48.184;16.298;2023-02-22T03:39:03;99378.88;;;10.67;81.88
43503;BME280;29098;48.184;16.298;2023-02-22T03:41:31;99375.78;;;10.63;81.93
43503;BME280;29098;48.184;16.298;2023-02-22T03:44:07;99374.78;;;10.64;81.64
43503;BME280;29098;48.184;16.298;2023-02-22T03:46:33;99375.41;;;10.66;81.40
43503;BME280;29098;48.184;16.298;2023-02-22T03:49:10;99382.69;;;10.64;81.21
43503;BME280;29098;48.184;16.298;2023-02-22T03:51:38;99382.59;;;10.73;81.26
43503;BME280;29098;48.184;16.298;2023-02-22T03:54:04;99384.22;;;10.74;81.72
43503;BME280;29098;48.184;16.298;2023-02-22T03:56:32;99387.06;;;10.72;81.00
43503;BME280;29098;48.184;16.298;2023-02-22T03:59:03;99388.06;;;10.71;80.40
43503;BME280;29098;48.184;16.298;2023-02-22T04:01:29;99380.25;;;10.78;80.04
43503;BME280;29098;48.184;16.298;2023-02-22T04:03:55;99382.72;;;10.79;78.08
43503;BME280;29098;48.184;16.298;2023-02-22T04:06:20;99374.59;;;10.81;78.39
43503;BME280;29098;48.184;16.298;2023-02-22T04:08:46;99383.34;;;10.81;78.06
43503;BME280;29098;48.184;16.298;2023-02-22T04:11:11;99385.53;;;10.78;78.27
43503;BME280;29098;48.184;16.298;2023-02-22T04:13:36;99389.88;;;10.86;77.65
43503;BME280;29098;48.184;16.298;2023-02-22T04:16:02;99389.88;;;10.86;77.18
43503;BME280;29098;48.184;16.298;2023-02-22T04:18:28;99392.50;;;10.86;76.72
43503;BME280;29098;48.184;16.298;2023-02-22T04:20:54;99394.50;;;10.83;77.37
43503;BME280;29098;48.184;16.298;2023-02-22T04:23:19;99392.16;;;10.89;76.49
43503;BME280;29098;48.184;16.298;2023-02-22T04:25:44;99394.16;;;10.87;77.65
43503;BME280;29098;48.184;16.298;2023-02-22T04:28:10;99382.41;;;10.89;76.99
43503;BME280;29098;48.184;16.298;2023-02-22T04:30:35;99386.78;;;10.82;76.73
43503;BME280;29098;48.184;16.298;2023-02-22T04:33:01;99394.88;;;10.80;78.04
43503;BME280;29098;48.184;16.298;2023-02-22T04:35:26;99381.59;;;10.89;77.61
43503;BME280;29098;48.184;16.298;2023-02-22T04:37:51;99384.13;;;10.82;76.84
43503;BME280;29098;48.184;16.298;2023-02-22T04:40:17;99390.78;;;10.78;78.13
43503;BME280;29098;48.184;16.298;2023-02-22T04:42:42;99382.88;;;10.78;78.23
43503;BME280;29098;48.184;16.298;2023-02-22T04:45:08;99383.44;;;10.73;77.88
43503;BME280;29098;48.184;16.298;2023-02-22T04:47:34;99385.31;;;10.64;78.30
43503;BME280;29098;48.184;16.298;2023-02-22T04:49:59;99387.97;;;10.64;78.71
43503;BME280;29098;48.184;16.298;2023-02-22T04:52:25;99388.59;;;10.66;78.36
43503;BME280;29098;48.184;16.298;2023-02-22T04:54:51;99386.03;;;10.58;79.76
43503;BME280;29098;48.184;16.298;2023-02-22T04:57:16;99380.16;;;10.56;79.36
43503;BME280;29098;48.184;16.298;2023-02-22T04:59:42;99385.13;;;10.51;80.21
43503;BME280;29098;48.184;16.298;2023-02-22T05:02:07;99383.50;;;10.50;80.93
43503;BME280;29098;48.184;16.298;2023-02-22T05:04:33;99382.88;;;10.48;80.34
43503;BME280;29098;48.184;16.298;2023-02-22T05:06:58;99385.13;;;10.51;80.62
43503;BME280;29098;48.184;16.298;2023-02-22T05:09:23;99379.84;;;10.51;80.84
43503;BME280;29098;48.184;16.298;2023-02-22T05:11:49;99382.50;;;10.51;80.97
43503;BME280;29098;48.184;16.298;2023-02-22T05:14:14;99380.91;;;10.41;81.02
43503;BME280;29098;48.184;16.298;2023-02-22T05:16:39;99383.91;;;10.38;81.37
43503;BME280;29098;48.184;16.298;2023-02-22T05:19:05;99382.56;;;10.43;81.50
43503;BME280;29098;48.184;16.298;2023-02-22T05:21:30;99388.13;;;10.48;81.07
43503;BME280;29098;48.184;16.298;2023-02-22T05:23:56;99379.19;;;10.34;81.86
43503;BME280;29098;48.184;16.298;2023-02-22T05:26:21;99374.84;;;10.41;81.86
43503;BME280;29098;48.184;16.298;2023-02-22T05:28:47;99379.28;;;10.40;81.95
43503;BME280;29098;48.184;16.298;2023-02-22T05:31:12;99376.81;;;10.39;82.11
43503;BME280;29098;48.184;16.298;2023-02-22T05:33:37;99381.16;;;10.32;81.93
43503;BME280;29098;48.184;16.298;2023-02-22T05:36:04;99374.91;;;10.33;81.97
43503;BME280;29098;48.184;16.298;2023-02-22T05:38:29;99378.00;;;10.36;81.84
43503;BME280;29098;48.184;16.298;2023-02-22T05:40:54;99383.91;;;10.38;81.92
43503;BME280;29098;48.184;16.298;2023-02-22T05:43:21;99382.06;;;10.24;82.52
43503;BME280;29098;48.184;16.298;2023-02-22T05:45:46;99384.34;;;10.27;82.49
43503;BME280;29098;48.184;16.298;2023-02-22T05:48:12;99380.00;;;10.34;82.48
43503;BME280;29098;48.184;16.298;2023-02-22T05:50:37;99387.63;;;10.29;82.68
43503;BME280;29098;48.184;16.298;2023-02-22T05:53:02;99384.34;;;10.27;83.39
43503;BME280;29098;48.184;16.298;2023-02-22T05:55:29;99385.00;;;10.29;84.02
43503;BME280;29098;48.184;16.298;2023-02-22T05:57:55;99391.19;;;10.36;83.92
43503;BME280;29098;48.184;16.298;2023-02-22T06:00:24;99385.72;;;10.38;83.79
43503;BME280;29098;48.184;16.298;2023-02-22T06:02:56;99386.44;;;10.32;83.76
43503;BME280;29098;48.184;16.298;2023-02-22T06:05:22;99385.38;;;10.41;83.71
43503;BME280;29098;48.184;16.298;2023-02-22T06:07:47;99386.03;;;10.43;83.90
43503;BME280;29098;48.184;16.298;2023-02-22T06:10:12;99394.41;;;10.47;84.33
43503;BME280;29098;48.184;16.298;2023-02-22T06:12:38;99398.03;;;10.46;83.43
43503;BME280;29098;48.184;16.298;2023-02-22T06:15:03;99395.56;;;10.44;83.88
43503;BME280;29098;48.184;16.298;2023-02-22T06:17:28;99396.97;;;10.55;85.08
43503;BME280;29098;48.184;16.298;2023-02-22T06:19:54;99402.91;;;10.72;85.10
43503;BME280;29098;48.184;16.298;2023-02-22T06:22:19;99407.78;;;10.75;84.23
43503;BME280;29098;48.184;16.298;2023-02-22T06:24:45;99403.72;;;10.88;84.09
43503;BME280;29098;48.184;16.298;2023-02-22T06:27:10;99404.16;;;10.76;82.63
43503;BME280;29098;48.184;16.298;2023-02-22T06:29:36;99405.97;;;10.61;82.96
43503;BME280;29098;48.184;16.298;2023-02-22T06:32:01;99402.78;;;10.50;83.95
43503;BME280;29098;48.184;16.298;2023-02-22T06:34:26;99407.47;;;10.40;84.11
43503;BME280;29098;48.184;16.298;2023-02-22T06:36:52;99404.63;;;10.41;83.91
43503;BME280;29098;48.184;16.298;2023-02-22T06:39:17;99408.25;;;10.40;84.23
43503;BME280;29098;48.184;16.298;2023-02-22T06:41:43;99407.97;;;10.44;84.09
43503;BME280;29098;48.184;16.298;2023-02-22T06:44:08;99407.63;;;10.38;84.21
43503;BME280;29098;48.184;16.298;2023-02-22T06:46:34;99403.94;;;10.48;84.87
43503;BME280;29098;48.184;16.298;2023-02-22T06:49:00;99409.84;;;10.50;84.40
43503;BME280;29098;48.184;16.298;2023-02-22T06:51:26;99406.47;;;10.41;85.20
43503;BME280;29098;48.184;16.298;2023-02-22T06:53:51;99408.78;;;10.59;84.40
43503;BME280;29098;48.184;16.298;2023-02-22T06:56:17;99407.34;;;10.57;84.38
43503;BME280;29098;48.184;16.298;2023-02-22T06:58:43;99406.16;;;10.59;84.36
43503;BME280;29098;48.184;16.298;2023-02-22T07:01:08;99405.25;;;10.67;84.52
43503;BME280;29098;48.184;16.298;2023-02-22T07:03:33;99409.63;;;10.75;83.71
43503;BME280;29098;48.184;16.298;2023-02-22T07:06:00;99410.00;;;10.87;81.30
43503;BME280;29098;48.184;16.298;2023-02-22T07:08:26;99414.16;;;10.96;80.79
43503;BME280;29098;48.184;16.298;2023-02-22T07:10:51;99406.44;;;10.94;81.12
43503;BME280;29098;48.184;16.298;2023-02-22T07:13:17;99407.44;;;10.78;79.42
43503;BME280;29098;48.184;16.298;2023-02-22T07:15:43;99416.25;;;10.86;82.32
43503;BME280;29098;48.184;16.298;2023-02-22T07:18:09;99413.25;;;10.89;82.00
43503;BME280;29098;48.184;16.298;2023-02-22T07:20:34;99415.34;;;10.93;83.65
43503;BME280;29098;48.184;16.298;2023-02-22T07:23:00;99411.88;;;10.93;80.44
43503;BME280;29098;48.184;16.298;2023-02-22T07:25:25;99407.72;;;10.99;78.48
43503;BME280;29098;48.184;16.298;2023-02-22T07:27:51;99411.06;;;11.07;77.92
43503;BME280;29098;48.184;16.298;2023-02-22T07:30:20;99407.88;;;10.97;79.48
43503;BME280;29098;48.184;16.298;2023-02-22T07:32:49;99408.88;;;11.11;78.11
43503;BME280;29098;48.184;16.298;2023-02-22T07:35:15;99404.16;;;11.21;78.50
43503;BME280;29098;48.184;16.298;2023-02-22T07:37:41;99403.13;;;11.22;78.08
43503;BME280;29098;48.184;16.298;2023-02-22T07:40:07;99404.38;;;11.27;77.67
43503;BME280;29098;48.184;16.298;2023-02-22T07:42:32;99380.75;;;11.18;78.40
43503;BME280;29098;48.184;16.298;2023-02-22T07:44:58;99400.34;;;11.46;75.11
43503;BME280;29098;48.184;16.298;2023-02-22T07:47:23;99403.81;;;11.46;74.03
43503;BME280;29098;48.184;16.298;2023-02-22T07:49:48;99398.53;;;11.46;74.81
43503;BME280;29098;48.184;16.298;2023-02-22T07:52:14;99401.94;;;11.62;72.97
43503;BME280;29098;48.184;16.298;2023-02-22T07:54:39;99400.69;;;11.58;73.69
43503;BME280;29098;48.184;16.298;2023-02-22T07:57:05;99400.19;;;11.69;71.80
43503;BME280;29098;48.184;16.298;2023-02-22T07:59:30;99405.41;;;11.62;72.16
43503;BME280;29098;48.184;16.298;2023-02-22T08:01:57;99399.03;;;11.57;71.60
43503;BME280;29098;48.184;16.298;2023-02-22T08:04:23;99400.66;;;11.73;70.42
43503;BME280;29098;48.184;16.298;2023-02-22T08:06:48;99393.34;;;11.75;70.63
43503;BME280;29098;48.184;16.298;2023-02-22T08:09:14;99392.94;;;11.78;70.82
43503;BME280;29098;48.184;16.298;2023-02-22T08:11:39;99400.88;;;11.78;70.05
43503;BME280;29098;48.184;16.298;2023-02-22T08:14:05;99388.00;;;11.90;68.79
43503;BME280;29098;48.184;16.298;2023-02-22T08:16:31;99397.38;;;11.92;68.22
43503;BME280;29098;48.184;16.298;2023-02-22T08:18:56;99393.09;;;11.91;67.86
43503;BME280;29098;48.184;16.298;2023-02-22T08:21:21;99392.16;;;11.99;67.04
43503;BME280;29098;48.184;16.298;2023-02-22T08:23:49;99393.44;;;12.03;67.65
43503;BME280;29098;48.184;16.298;2023-02-22T08:26:15;99389.13;;;12.02;66.61
43503;BME280;29098;48.184;16.298;2023-02-22T08:28:42;99394.88;;;12.06;65.20
43503;BME280;29098;48.184;16.298;2023-02-22T08:31:08;99387.66;;;12.15;65.04
43503;BME280;29098;48.184;16.298;2023-02-22T08:33:33;99387.66;;;12.15;65.14
43503;BME280;29098;48.184;16.298;2023-02-22T08:35:59;99390.66;;;12.12;65.16
43503;BME280;29098;48.184;16.298;2023-02-22T08:38:27;99378.88;;;12.14;65.69
43503;BME280;29098;48.184;16.298;2023-02-22T08:40:52;99385.47;;;12.25;64.46
43503;BME280;29098;48.184;16.298;2023-02-22T08:43:18;99382.66;;;12.27;63.63
43503;BME280;29098;48.184;16.298;2023-02-22T08:45:44;99387.94;;;12.27;62.98
43503;BME280;29098;48.184;16.298;2023-02-22T08:48:09;99395.66;;;12.28;63.29
43503;BME280;29098;48.184;16.298;2023-02-22T08:50:35;99384.31;;;12.35;63.15
43503;BME280;29098;48.184;16.298;2023-02-22T08:53:03;99381.53;;;12.43;62.77
43503;BME280;29098;48.184;16.298;2023-02-22T08:55:33;99383.66;;;12.54;62.56
43503;BME280;29098;48.184;16.298;2023-02-22T08:57:58;99388.09;;;12.47;61.97
43503;BME280;29098;48.184;16.298;2023-02-22T09:00:25;99387.91;;;12.49;62.50
43503;BME280;29098;48.184;16.298;2023-02-22T09:02:51;99384.25;;;12.50;62.03
43503;BME280;29098;48.184;16.298;2023-02-22T09:05:16;99386.31;;;12.54;62.26
43503;BME280;29098;48.184;16.298;2023-02-22T09:07:42;99388.53;;;12.57;61.90
43503;BME280;29098;48.184;16.298;2023-02-22T09:10:15;99389.84;;;12.68;61.47
43503;BME280;29098;48.184;16.298;2023-02-22T09:12:40;99380.84;;;12.63;60.76
43503;BME280;29098;48.184;16.298;2023-02-22T09:15:06;99381.78;;;12.48;60.81
43503;BME280;29098;48.184;16.298;2023-02-22T09:17:31;99380.03;;;12.62;59.83
43503;BME280;29098;48.184;16.298;2023-02-22T09:19:57;99386.16;;;12.63;60.42
43503;BME280;29098;48.184;16.298;2023-02-22T09:22:22;99380.88;;;12.69;60.83
43503;BME280;29098;48.184;16.298;2023-02-22T09:24:47;99380.53;;;12.79;60.60
43503;BME280;29098;48.184;16.298;2023-02-22T09:27:13;99383.44;;;12.84;59.78
43503;BME280;29098;48.184;16.298;2023-02-22T09:29:38;99389.88;;;12.75;60.10
43503;BME280;29098;48.184;16.298;2023-02-22T09:32:04;99380.94;;;12.76;59.41
43503;BME280;29098;48.184;16.298;2023-02-22T09:34:29;99382.22;;;12.87;60.49
43503;BME280;29098;48.184;16.298;2023-02-22T09:36:59;99382.25;;;12.94;59.93
43503;BME280;29098;48.184;16.298;2023-02-22T09:39:25;99379.84;;;12.99;59.62
43503;BME280;29098;48.184;16.298;2023-02-22T09:41:53;99377.63;;;13.02;59.76
43503;BME280;29098;48.184;16.298;2023-02-22T09:46:54;99373.44;;;13.28;59.60
43503;BME280;29098;48.184;16.298;2023-02-22T09:49:33;99370.78;;;13.35;58.13
43503;BME280;29098;48.184;16.298;2023-02-22T09:52:16;99362.84;;;13.35;57.99
43503;BME280;29098;48.184;16.298;2023-02-22T09:54:43;99367.78;;;13.45;58.02
43503;BME280;29098;48.184;16.298;2023-02-22T09:57:12;99362.25;;;13.40;57.01
43503;BME280;29098;48.184;16.298;2023-02-22T09:59:57;99366.50;;;13.34;56.58
43503;BME280;29098;48.184;16.298;2023-02-22T10:02:29;99364.97;;;13.47;58.27
43503;BME280;29098;48.184;16.298;2023-02-22T10:05:02;99362.13;;;13.55;57.51
43503;BME280;29098;48.184;16.298;2023-02-22T10:09:58;99361.31;;;13.75;57.73
43503;BME280;29098;48.184;16.298;2023-02-22T10:17:40;99352.78;;;14.00;57.38
43503;BME280;29098;48.184;16.298;2023-02-22T10:25:19;99349.31;;;14.19;57.31
43503;BME280;29098;48.184;16.298;2023-02-22T10:27:55;99338.09;;;14.31;57.95
43503;BME280;29098;48.184;16.298;2023-02-22T10:30:31;99342.56;;;14.37;57.53
43503;BME280;29098;48.184;16.298;2023-02-22T10:33:41;99338.09;;;14.31;57.09
43503;BME280;29098;48.184;16.298;2023-02-22T10:35:47;99332.16;;;14.42;56.64
43503;BME280;29098;48.184;16.298;2023-02-22T10:40:42;99332.38;;;14.27;55.89
43503;BME280;29098;48.184;16.298;2023-02-22T10:43:07;99331.56;;;14.27;55.33
43503;BME280;29098;48.184;16.298;2023-02-22T10:45:35;99323.38;;;14.42;55.81
43503;BME280;29098;48.184;16.298;2023-02-22T10:48:05;99335.38;;;14.58;56.81
43503;BME280;29098;48.184;16.298;2023-02-22T10:50:33;99326.78;;;14.69;55.58
43503;BME280;29098;48.184;16.298;2023-02-22T10:52:59;99335.13;;;14.66;55.23
43503;BME280;29098;48.184;16.298;2023-02-22T10:55:25;99320.69;;;14.62;55.90
43503;BME280;29098;48.184;16.298;2023-02-22T10:57:51;99321.94;;;14.52;56.15
43503;BME280;29098;48.184;16.298;2023-02-22T11:03:00;99319.44;;;14.58;54.33
43503;BME280;29098;48.184;16.298;2023-02-22T11:05:27;99325.16;;;14.61;54.10
43503;BME280;29098;48.184;16.298;2023-02-22T11:08:12;99317.03;;;14.56;54.19
43503;BME280;29098;48.184;16.298;2023-02-22T11:10:39;99311.25;;;14.79;54.41
43503;BME280;29098;48.184;16.298;2023-02-22T11:15:42;99313.66;;;14.88;53.08
43503;BME280;29098;48.184;16.298;2023-02-22T11:18:30;99306.94;;;14.92;53.48
43503;BME280;29098;48.184;16.298;2023-02-22T11:23:26;99298.16;;;15.24;52.94
43503;BME280;29098;48.184;16.298;2023-02-22T11:25:58;99293.34;;;15.14;53.01
43503;BME280;29098;48.184;16.298;2023-02-22T11:28:26;99292.97;;;15.03;52.50
43503;BME280;29098;48.184;16.298;2023-02-22T11:30:57;99283.47;;;15.21;52.34
43503;BME280;29098;48.184;16.298;2023-02-22T11:33:32;99286.03;;;15.67;53.73
43503;BME280;29098;48.184;16.298;2023-02-22T11:35:58;99285.72;;;16.07;51.55
43503;BME280;29098;48.184;16.298;2023-02-22T11:43:33;99277.84;;;16.19;49.63
43503;BME280;29098;48.184;16.298;2023-02-22T11:48:28;99280.69;;;16.92;49.34
43503;BME280;29098;48.184;16.298;2023-02-22T11:56:21;99264.75;;;17.47;47.22
43503;BME280;29098;48.184;16.298;2023-02-22T11:59:05;99264.22;;;17.80;48.09
43503;BME280;29098;48.184;16.298;2023-02-22T12:04:26;99269.34;;;16.48;48.54
43503;BME280;29098;48.184;16.298;2023-02-22T12:09:53;99257.50;;;16.43;49.31
43503;BME280;29098;48.184;16.298;2023-02-22T12:17:32;99256.97;;;16.53;48.64
43503;BME280;29098;48.184;16.298;2023-02-22T12:20:16;99251.63;;;17.21;48.87
43503;BME280;29098;48.184;16.298;2023-02-22T12:25:19;99237.09;;;17.84;48.65
43503;BME280;29098;48.184;16.298;2023-02-22T12:27:50;99238.84;;;18.14;48.30
43503;BME280;29098;48.184;16.298;2023-02-22T12:30:19;99239.06;;;17.41;46.25
43503;BME280;29098;48.184;16.298;2023-02-22T12:32:49;99229.66;;;17.38;46.75
43503;BME280;29098;48.184;16.298;2023-02-22T12:35:18;99230.22;;;17.28;47.23
43503;BME280;29098;48.184;16.298;2023-02-22T12:38:02;99229.19;;;17.65;45.99
43503;BME280;29098;48.184;16.298;2023-02-22T12:40:34;99230.25;;;17.64;47.39
43503;BME280;29098;48.184;16.298;2023-02-22T12:43:09;99216.91;;;17.88;46.93
43503;BME280;29098;48.184;16.298;2023-02-22T12:50:46;99219.50;;;18.76;45.16
43503;BME280;29098;48.184;16.298;2023-02-22T12:53:15;99217.91;;;19.05;45.22
43503;BME280;29098;48.184;16.298;2023-02-22T12:55:49;99213.88;;;18.20;43.92
43503;BME280;29098;48.184;16.298;2023-02-22T12:58:23;99204.94;;;18.67;44.94
43503;BME280;29098;48.184;16.298;2023-02-22T13:01:10;99203.59;;;19.11;43.87
43503;BME280;29098;48.184;16.298;2023-02-22T13:03:39;99201.03;;;18.87;43.95
43503;BME280;29098;48.184;16.298;2023-02-22T13:08:36;99196.69;;;18.69;43.96
43503;BME280;29098;48.184;16.298;2023-02-22T13:11:11;99195.81;;;19.26;44.06
43503;BME280;29098;48.184;16.298;2023-02-22T13:21:03;99190.22;;;19.45;41.62
43503;BME280;29098;48.184;16.298;2023-02-22T13:23:36;99184.22;;;19.38;41.72
43503;BME280;29098;48.184;16.298;2023-02-22T13:28:49;99192.94;;;18.99;42.31
43503;BME280;29098;48.184;16.298;2023-02-22T13:31:33;99193.16;;;19.26;41.96
43503;BME280;29098;48.184;16.298;2023-02-22T13:52:38;99171.41;;;18.59;42.00
43503;BME280;29098;48.184;16.298;2023-02-22T13:55:05;99160.16;;;18.57;42.21
43503;BME280;29098;48.184;16.298;2023-02-22T13:57:42;99171.59;;;18.70;41.83
43503;BME280;29098;48.184;16.298;2023-02-22T14:03:05;99155.44;;;18.94;42.11
43503;BME280;29098;48.184;16.298;2023-02-22T14:08:05;99157.25;;;18.59;41.93
43503;BME280;29098;48.184;16.298;2023-02-22T14:10:36;99162.31;;;18.89;41.74
43503;BME280;29098;48.184;16.298;2023-02-22T14:13:05;99161.47;;;18.72;42.28
43503;BME280;29098;48.184;16.298;2023-02-22T14:15:31;99153.78;;;19.22;41.41
43503;BME280;29098;48.184;16.298;2023-02-22T14:17:57;99149.38;;;19.50;41.01
43503;BME280;29098;48.184;16.298;2023-02-22T14:20:29;99145.84;;;19.27;41.60
43503;BME280;29098;48.184;16.298;2023-02-22T14:23:25;99146.00;;;19.37;40.70
43503;BME280;29098;48.184;16.298;2023-02-22T14:25:43;99147.88;;;19.02;41.71
43503;BME280;29098;48.184;16.298;2023-02-22T14:31:03;99143.47;;;18.79;41.79
43503;BME280;29098;48.184;16.298;2023-02-22T14:33:48;99139.97;;;18.61;42.33
43503;BME280;29098;48.184;16.298;2023-02-22T14:36:14;99137.34;;;18.67;41.75
43503;BME280;29098;48.184;16.298;2023-02-22T14:38:41;99136.34;;;18.39;42.16
43503;BME280;29098;48.184;16.298;2023-02-22T14:41:07;99135.22;;;18.23;43.45
43503;BME280;29098;48.184;16.298;2023-02-22T14:43:34;99132.72;;;18.16;43.05
43503;BME280;29098;48.184;16.298;2023-02-22T14:46:00;99135.03;;;18.00;42.91